sensor_id;sensor_type;location;lat;lon;timestamp;P1;durP1;ratioP1;P2;durP2;ratioP2
67839;SDS011;54636;51.684;5.142;2022-12-18T00:01:35;71.93;;;24.33;;
67839;SDS011;54636;51.684;5.142;2022-12-18T00:04:03;34.35;;;13.68;;
67839;SDS011;54636;51.684;5.142;2022-12-18T00:06:32;36.70;;;18.35;;
67839;SDS011;54636;51.684;5.142;2022-12-18T00:09:00;76.63;;;23.17;;
67839;SDS011;54636;51.684;5.142;2022-12-18T00:11:27;40.47;;;18.10;;
67839;SDS011;54636;51.684;5.142;2022-12-18T00:13:58;64.13;;;19.83;;
67839;SDS011;54636;51.684;5.142;2022-12-18T00:16:25;57.53;;;21.60;;
67839;SDS011;54636;51.684;5.142;2022-12-18T00:18:52;49.45;;;21.98;;
67839;SDS011;54636;51.684;5.142;2022-12-18T00:21:19;83.95;;;24.65;;
67839;SDS011;54636;51.684;5.142;2022-12-18T00:23:45;73.20;;;23.98;;
67839;SDS011;54636;51.684;5.142;2022-12-18T00:26:13;52.35;;;24.58;;
67839;SDS011;54636;51.684;5.142;2022-12-18T00:28:40;58.05;;;24.50;;
67839;SDS011;54636;51.684;5.142;2022-12-18T00:31:07;46.42;;;17.13;;
67839;SDS011;54636;51.684;5.142;2022-12-18T00:33:34;70.03;;;24.77;;
67839;SDS011;54636;51.684;5.142;2022-12-18T00:36:04;25.83;;;10.85;;
67839;SDS011;54636;51.684;5.142;2022-12-18T00:38:51;31.60;;;16.00;;
67839;SDS011;54636;51.684;5.142;2022-12-18T00:41:17;50.53;;;23.38;;
67839;SDS011;54636;51.684;5.142;2022-12-18T00:44:06;36.53;;;18.23;;
67839;SDS011;54636;51.684;5.142;2022-12-18T00:46:33;35.58;;;15.93;;
67839;SDS011;54636;51.684;5.142;2022-12-18T00:48:58;29.23;;;16.25;;
67839;SDS011;54636;51.684;5.142;2022-12-18T00:51:24;43.75;;;21.23;;
67839;SDS011;54636;51.684;5.142;2022-12-18T00:53:51;37.10;;;19.17;;
67839;SDS011;54636;51.684;5.142;2022-12-18T00:56:17;63.38;;;24.63;;
67839;SDS011;54636;51.684;5.142;2022-12-18T00:58:42;45.60;;;22.20;;
67839;SDS011;54636;51.684;5.142;2022-12-18T01:01:08;57.90;;;26.55;;
67839;SDS011;54636;51.684;5.142;2022-12-18T01:03:33;58.42;;;25.17;;
67839;SDS011;54636;51.684;5.142;2022-12-18T01:06:04;48.03;;;20.38;;
67839;SDS011;54636;51.684;5.142;2022-12-18T01:08:31;38.17;;;17.95;;
67839;SDS011;54636;51.684;5.142;2022-12-18T01:10:56;42.65;;;22.88;;
67839;SDS011;54636;51.684;5.142;2022-12-18T01:13:22;34.80;;;15.35;;
67839;SDS011;54636;51.684;5.142;2022-12-18T01:15:52;53.42;;;20.38;;
67839;SDS011;54636;51.684;5.142;2022-12-18T01:18:17;31.17;;;14.18;;
67839;SDS011;54636;51.684;5.142;2022-12-18T01:20:43;11.00;;;6.60;;
67839;SDS011;54636;51.684;5.142;2022-12-18T01:23:08;40.05;;;17.92;;
67839;SDS011;54636;51.684;5.142;2022-12-18T01:25:37;35.65;;;15.35;;
67839;SDS011;54636;51.684;5.142;2022-12-18T01:28:03;38.72;;;19.48;;
67839;SDS011;54636;51.684;5.142;2022-12-18T01:30:28;38.25;;;19.33;;
67839;SDS011;54636;51.684;5.142;2022-12-18T01:32:54;41.80;;;20.27;;
67839;SDS011;54636;51.684;5.142;2022-12-18T01:35:19;23.77;;;13.35;;
67839;SDS011;54636;51.684;5.142;2022-12-18T01:37:44;35.65;;;16.08;;
67839;SDS011;54636;51.684;5.142;2022-12-18T01:40:10;23.35;;;13.25;;
67839;SDS011;54636;51.684;5.142;2022-12-18T01:42:35;23.15;;;12.88;;
67839;SDS011;54636;51.684;5.142;2022-12-18T01:45:05;46.35;;;21.50;;
67839;SDS011;54636;51.684;5.142;2022-12-18T01:50:15;39.72;;;17.48;;
67839;SDS011;54636;51.684;5.142;2022-12-18T01:52:48;24.05;;;12.68;;
67839;SDS011;54636;51.684;5.142;2022-12-18T01:55:17;45.33;;;19.47;;
67839;SDS011;54636;51.684;5.142;2022-12-18T01:57:45;43.00;;;19.27;;
67839;SDS011;54636;51.684;5.142;2022-12-18T02:00:14;26.10;;;13.90;;
67839;SDS011;54636;51.684;5.142;2022-12-18T02:02:45;35.17;;;15.73;;
67839;SDS011;54636;51.684;5.142;2022-12-18T02:05:11;33.15;;;16.95;;
67839;SDS011;54636;51.684;5.142;2022-12-18T02:07:48;38.35;;;18.95;;
67839;SDS011;54636;51.684;5.142;2022-12-18T02:10:27;30.38;;;12.20;;
67839;SDS011;54636;51.684;5.142;2022-12-18T02:15:38;33.47;;;18.25;;
67839;SDS011;54636;51.684;5.142;2022-12-18T02:18:10;47.35;;;23.08;;
67839;SDS011;54636;51.684;5.142;2022-12-18T02:20:44;55.65;;;23.30;;
67839;SDS011;54636;51.684;5.142;2022-12-18T02:29:15;28.60;;;14.38;;
67839;SDS011;54636;51.684;5.142;2022-12-18T02:31:38;14.25;;;9.18;;
67839;SDS011;54636;51.684;5.142;2022-12-18T02:34:08;33.03;;;16.85;;
67839;SDS011;54636;51.684;5.142;2022-12-18T02:36:35;16.65;;;9.75;;
67839;SDS011;54636;51.684;5.142;2022-12-18T02:39:04;28.42;;;15.25;;
67839;SDS011;54636;51.684;5.142;2022-12-18T02:41:32;31.00;;;13.88;;
67839;SDS011;54636;51.684;5.142;2022-12-18T02:44:00;32.35;;;14.73;;
67839;SDS011;54636;51.684;5.142;2022-12-18T02:46:28;20.48;;;11.02;;
67839;SDS011;54636;51.684;5.142;2022-12-18T02:51:50;41.97;;;21.30;;
67839;SDS011;54636;51.684;5.142;2022-12-18T02:56:54;34.90;;;17.92;;
67839;SDS011;54636;51.684;5.142;2022-12-18T02:59:34;41.55;;;18.35;;
67839;SDS011;54636;51.684;5.142;2022-12-18T03:02:25;27.33;;;15.93;;
67839;SDS011;54636;51.684;5.142;2022-12-18T03:07:42;36.80;;;17.55;;
67839;SDS011;54636;51.684;5.142;2022-12-18T03:10:17;39.63;;;18.05;;
67839;SDS011;54636;51.684;5.142;2022-12-18T03:12:51;23.55;;;9.70;;
67839;SDS011;54636;51.684;5.142;2022-12-18T03:15:24;37.20;;;18.70;;
67839;SDS011;54636;51.684;5.142;2022-12-18T03:18:07;44.15;;;19.90;;
67839;SDS011;54636;51.684;5.142;2022-12-18T03:20:38;41.90;;;20.05;;
67839;SDS011;54636;51.684;5.142;2022-12-18T03:23:09;11.02;;;6.28;;
67839;SDS011;54636;51.684;5.142;2022-12-18T03:25:39;20.25;;;12.18;;
67839;SDS011;54636;51.684;5.142;2022-12-18T03:28:12;9.57;;;6.18;;
67839;SDS011;54636;51.684;5.142;2022-12-18T03:30:41;21.17;;;12.80;;
67839;SDS011;54636;51.684;5.142;2022-12-18T03:33:19;31.05;;;13.38;;
67839;SDS011;54636;51.684;5.142;2022-12-18T03:35:50;43.17;;;18.95;;
67839;SDS011;54636;51.684;5.142;2022-12-18T03:38:16;40.10;;;18.95;;
67839;SDS011;54636;51.684;5.142;2022-12-18T03:46:27;23.13;;;12.77;;
67839;SDS011;54636;51.684;5.142;2022-12-18T03:49:16;28.35;;;15.02;;
67839;SDS011;54636;51.684;5.142;2022-12-18T03:51:50;18.08;;;12.18;;
67839;SDS011;54636;51.684;5.142;2022-12-18T03:54:22;14.93;;;9.47;;
67839;SDS011;54636;51.684;5.142;2022-12-18T03:56:51;33.83;;;15.93;;
67839;SDS011;54636;51.684;5.142;2022-12-18T03:59:26;27.67;;;13.82;;
67839;SDS011;54636;51.684;5.142;2022-12-18T04:01:54;16.45;;;9.60;;
67839;SDS011;54636;51.684;5.142;2022-12-18T04:04:23;27.40;;;16.00;;
67839;SDS011;54636;51.684;5.142;2022-12-18T04:06:52;17.93;;;9.77;;
67839;SDS011;54636;51.684;5.142;2022-12-18T04:09:18;19.33;;;10.75;;
67839;SDS011;54636;51.684;5.142;2022-12-18T04:11:45;22.73;;;10.90;;
67839;SDS011;54636;51.684;5.142;2022-12-18T04:14:11;20.23;;;10.68;;
67839;SDS011;54636;51.684;5.142;2022-12-18T04:16:37;21.08;;;13.13;;
67839;SDS011;54636;51.684;5.142;2022-12-18T04:19:02;16.88;;;10.63;;
67839;SDS011;54636;51.684;5.142;2022-12-18T04:21:28;16.38;;;9.25;;
67839;SDS011;54636;51.684;5.142;2022-12-18T04:23:53;16.60;;;8.18;;
67839;SDS011;54636;51.684;5.142;2022-12-18T04:26:19;25.15;;;15.00;;
67839;SDS011;54636;51.684;5.142;2022-12-18T04:28:45;26.38;;;11.63;;
67839;SDS011;54636;51.684;5.142;2022-12-18T04:31:10;10.65;;;8.18;;
67839;SDS011;54636;51.684;5.142;2022-12-18T04:33:36;20.80;;;12.35;;
67839;SDS011;54636;51.684;5.142;2022-12-18T04:36:02;14.45;;;8.55;;
67839;SDS011;54636;51.684;5.142;2022-12-18T04:38:27;23.15;;;11.52;;
67839;SDS011;54636;51.684;5.142;2022-12-18T04:40:53;28.98;;;14.35;;
67839;SDS011;54636;51.684;5.142;2022-12-18T04:43:18;22.35;;;13.65;;
67839;SDS011;54636;51.684;5.142;2022-12-18T04:45:43;29.67;;;14.45;;
67839;SDS011;54636;51.684;5.142;2022-12-18T04:48:09;31.10;;;16.00;;
67839;SDS011;54636;51.684;5.142;2022-12-18T04:50:34;24.00;;;11.90;;
67839;SDS011;54636;51.684;5.142;2022-12-18T04:52:59;33.03;;;15.60;;
67839;SDS011;54636;51.684;5.142;2022-12-18T04:55:25;31.65;;;17.33;;
67839;SDS011;54636;51.684;5.142;2022-12-18T04:57:51;18.25;;;11.07;;
67839;SDS011;54636;51.684;5.142;2022-12-18T05:00:17;22.52;;;11.48;;
67839;SDS011;54636;51.684;5.142;2022-12-18T05:02:42;22.40;;;13.60;;
67839;SDS011;54636;51.684;5.142;2022-12-18T05:05:08;18.35;;;11.00;;
67839;SDS011;54636;51.684;5.142;2022-12-18T05:07:33;24.13;;;13.05;;
67839;SDS011;54636;51.684;5.142;2022-12-18T05:09:59;22.45;;;10.75;;
67839;SDS011;54636;51.684;5.142;2022-12-18T05:12:24;16.70;;;10.27;;
67839;SDS011;54636;51.684;5.142;2022-12-18T05:14:50;17.38;;;9.48;;
67839;SDS011;54636;51.684;5.142;2022-12-18T05:17:15;18.52;;;9.85;;
67839;SDS011;54636;51.684;5.142;2022-12-18T05:19:41;17.30;;;10.10;;
67839;SDS011;54636;51.684;5.142;2022-12-18T05:22:06;23.77;;;12.93;;
67839;SDS011;54636;51.684;5.142;2022-12-18T05:24:32;14.10;;;9.00;;
67839;SDS011;54636;51.684;5.142;2022-12-18T05:26:57;17.55;;;9.77;;
67839;SDS011;54636;51.684;5.142;2022-12-18T05:29:23;18.55;;;11.65;;
67839;SDS011;54636;51.684;5.142;2022-12-18T05:31:48;18.67;;;11.50;;
67839;SDS011;54636;51.684;5.142;2022-12-18T05:34:13;20.00;;;10.75;;
67839;SDS011;54636;51.684;5.142;2022-12-18T05:36:39;26.88;;;12.73;;
67839;SDS011;54636;51.684;5.142;2022-12-18T05:39:04;17.10;;;9.68;;
67839;SDS011;54636;51.684;5.142;2022-12-18T05:41:30;13.95;;;9.45;;
67839;SDS011;54636;51.684;5.142;2022-12-18T05:43:55;14.15;;;9.25;;
67839;SDS011;54636;51.684;5.142;2022-12-18T05:46:21;20.20;;;12.02;;
67839;SDS011;54636;51.684;5.142;2022-12-18T05:48:46;17.80;;;10.70;;
67839;SDS011;54636;51.684;5.142;2022-12-18T05:51:14;22.30;;;12.13;;
67839;SDS011;54636;51.684;5.142;2022-12-18T05:53:41;18.60;;;9.98;;
67839;SDS011;54636;51.684;5.142;2022-12-18T05:56:08;7.22;;;6.50;;
67839;SDS011;54636;51.684;5.142;2022-12-18T05:58:35;17.77;;;9.85;;
67839;SDS011;54636;51.684;5.142;2022-12-18T06:01:12;24.20;;;13.90;;
67839;SDS011;54636;51.684;5.142;2022-12-18T06:03:39;17.30;;;11.18;;
67839;SDS011;54636;51.684;5.142;2022-12-18T06:06:12;13.07;;;8.45;;
67839;SDS011;54636;51.684;5.142;2022-12-18T06:08:38;15.38;;;9.77;;
67839;SDS011;54636;51.684;5.142;2022-12-18T06:11:04;18.92;;;10.52;;
67839;SDS011;54636;51.684;5.142;2022-12-18T06:13:29;8.48;;;6.35;;
67839;SDS011;54636;51.684;5.142;2022-12-18T06:15:55;11.00;;;7.15;;
67839;SDS011;54636;51.684;5.142;2022-12-18T06:18:20;19.25;;;10.25;;
67839;SDS011;54636;51.684;5.142;2022-12-18T06:20:53;27.63;;;15.55;;
67839;SDS011;54636;51.684;5.142;2022-12-18T06:23:22;8.90;;;6.88;;
67839;SDS011;54636;51.684;5.142;2022-12-18T06:25:47;18.77;;;11.40;;
67839;SDS011;54636;51.684;5.142;2022-12-18T06:28:13;20.45;;;12.43;;
67839;SDS011;54636;51.684;5.142;2022-12-18T06:30:38;19.73;;;11.32;;
67839;SDS011;54636;51.684;5.142;2022-12-18T06:33:07;19.13;;;11.30;;
67839;SDS011;54636;51.684;5.142;2022-12-18T06:35:32;18.70;;;10.40;;
67839;SDS011;54636;51.684;5.142;2022-12-18T06:37:57;19.17;;;11.02;;
67839;SDS011;54636;51.684;5.142;2022-12-18T06:40:24;20.05;;;11.60;;
67839;SDS011;54636;51.684;5.142;2022-12-18T06:42:49;14.32;;;10.27;;
67839;SDS011;54636;51.684;5.142;2022-12-18T06:45:14;24.70;;;16.35;;
67839;SDS011;54636;51.684;5.142;2022-12-18T06:47:40;13.27;;;7.53;;
67839;SDS011;54636;51.684;5.142;2022-12-18T06:50:06;20.65;;;11.73;;
67839;SDS011;54636;51.684;5.142;2022-12-18T06:52:32;21.02;;;10.73;;
67839;SDS011;54636;51.684;5.142;2022-12-18T06:54:58;17.92;;;10.35;;
67839;SDS011;54636;51.684;5.142;2022-12-18T06:57:24;17.58;;;11.27;;
67839;SDS011;54636;51.684;5.142;2022-12-18T06:59:49;15.85;;;9.70;;
67839;SDS011;54636;51.684;5.142;2022-12-18T07:02:14;17.05;;;11.43;;
67839;SDS011;54636;51.684;5.142;2022-12-18T07:04:40;16.23;;;8.95;;
67839;SDS011;54636;51.684;5.142;2022-12-18T07:07:05;19.40;;;10.18;;
67839;SDS011;54636;51.684;5.142;2022-12-18T07:09:31;24.08;;;11.20;;
67839;SDS011;54636;51.684;5.142;2022-12-18T07:11:56;18.00;;;11.00;;
67839;SDS011;54636;51.684;5.142;2022-12-18T07:14:22;11.80;;;8.63;;
67839;SDS011;54636;51.684;5.142;2022-12-18T07:16:50;13.38;;;9.82;;
67839;SDS011;54636;51.684;5.142;2022-12-18T07:19:15;13.40;;;7.95;;
67839;SDS011;54636;51.684;5.142;2022-12-18T07:21:41;18.50;;;12.60;;
67839;SDS011;54636;51.684;5.142;2022-12-18T07:24:06;14.57;;;10.07;;
67839;SDS011;54636;51.684;5.142;2022-12-18T07:26:32;14.52;;;9.57;;
67839;SDS011;54636;51.684;5.142;2022-12-18T07:28:57;16.65;;;8.77;;
67839;SDS011;54636;51.684;5.142;2022-12-18T07:31:23;12.27;;;8.95;;
67839;SDS011;54636;51.684;5.142;2022-12-18T07:33:52;13.07;;;9.55;;
67839;SDS011;54636;51.684;5.142;2022-12-18T07:36:18;17.90;;;12.18;;
67839;SDS011;54636;51.684;5.142;2022-12-18T07:38:49;17.40;;;10.23;;
67839;SDS011;54636;51.684;5.142;2022-12-18T07:41:16;16.40;;;8.73;;
67839;SDS011;54636;51.684;5.142;2022-12-18T07:43:43;20.33;;;12.50;;
67839;SDS011;54636;51.684;5.142;2022-12-18T07:46:09;15.38;;;10.00;;
67839;SDS011;54636;51.684;5.142;2022-12-18T07:48:35;14.88;;;10.43;;
67839;SDS011;54636;51.684;5.142;2022-12-18T07:51:01;24.50;;;14.15;;
67839;SDS011;54636;51.684;5.142;2022-12-18T07:53:29;14.73;;;8.55;;
67839;SDS011;54636;51.684;5.142;2022-12-18T07:55:59;16.50;;;9.50;;
67839;SDS011;54636;51.684;5.142;2022-12-18T07:58:26;21.38;;;13.73;;
67839;SDS011;54636;51.684;5.142;2022-12-18T08:00:51;11.40;;;7.95;;
67839;SDS011;54636;51.684;5.142;2022-12-18T08:03:17;16.50;;;9.48;;
67839;SDS011;54636;51.684;5.142;2022-12-18T08:05:44;22.95;;;12.27;;
67839;SDS011;54636;51.684;5.142;2022-12-18T08:08:10;13.32;;;9.60;;
67839;SDS011;54636;51.684;5.142;2022-12-18T08:10:35;15.18;;;8.95;;
67839;SDS011;54636;51.684;5.142;2022-12-18T08:13:02;14.98;;;9.77;;
67839;SDS011;54636;51.684;5.142;2022-12-18T08:15:28;19.63;;;11.75;;
67839;SDS011;54636;51.684;5.142;2022-12-18T08:17:56;14.32;;;10.00;;
67839;SDS011;54636;51.684;5.142;2022-12-18T08:20:22;15.98;;;7.47;;
67839;SDS011;54636;51.684;5.142;2022-12-18T08:22:47;17.65;;;11.98;;
67839;SDS011;54636;51.684;5.142;2022-12-18T08:25:13;12.05;;;8.38;;
67839;SDS011;54636;51.684;5.142;2022-12-18T08:27:39;11.27;;;7.70;;
67839;SDS011;54636;51.684;5.142;2022-12-18T08:30:04;13.57;;;10.40;;
67839;SDS011;54636;51.684;5.142;2022-12-18T08:32:30;17.30;;;10.48;;
67839;SDS011;54636;51.684;5.142;2022-12-18T08:34:57;16.60;;;10.13;;
67839;SDS011;54636;51.684;5.142;2022-12-18T08:37:23;21.65;;;12.30;;
67839;SDS011;54636;51.684;5.142;2022-12-18T08:39:49;19.05;;;11.60;;
67839;SDS011;54636;51.684;5.142;2022-12-18T08:42:17;15.75;;;9.35;;
67839;SDS011;54636;51.684;5.142;2022-12-18T08:45:01;17.63;;;10.88;;
67839;SDS011;54636;51.684;5.142;2022-12-18T08:47:27;16.98;;;9.30;;
67839;SDS011;54636;51.684;5.142;2022-12-18T08:49:53;29.05;;;12.80;;
67839;SDS011;54636;51.684;5.142;2022-12-18T08:52:18;14.30;;;10.25;;
67839;SDS011;54636;51.684;5.142;2022-12-18T08:54:44;18.42;;;10.30;;
67839;SDS011;54636;51.684;5.142;2022-12-18T08:57:10;12.80;;;8.57;;
67839;SDS011;54636;51.684;5.142;2022-12-18T08:59:36;17.65;;;9.05;;
67839;SDS011;54636;51.684;5.142;2022-12-18T09:02:01;20.50;;;11.90;;
67839;SDS011;54636;51.684;5.142;2022-12-18T09:04:27;15.52;;;9.27;;
67839;SDS011;54636;51.684;5.142;2022-12-18T09:06:52;13.02;;;8.68;;
67839;SDS011;54636;51.684;5.142;2022-12-18T09:09:20;25.67;;;12.25;;
67839;SDS011;54636;51.684;5.142;2022-12-18T09:11:46;14.27;;;7.97;;
67839;SDS011;54636;51.684;5.142;2022-12-18T09:14:11;15.90;;;9.32;;
67839;SDS011;54636;51.684;5.142;2022-12-18T09:16:37;14.57;;;10.32;;
67839;SDS011;54636;51.684;5.142;2022-12-18T09:19:03;18.73;;;12.93;;
67839;SDS011;54636;51.684;5.142;2022-12-18T09:21:33;16.05;;;10.07;;
67839;SDS011;54636;51.684;5.142;2022-12-18T09:24:00;14.50;;;9.85;;
67839;SDS011;54636;51.684;5.142;2022-12-18T09:26:26;19.42;;;13.27;;
67839;SDS011;54636;51.684;5.142;2022-12-18T09:28:52;13.00;;;9.77;;
67839;SDS011;54636;51.684;5.142;2022-12-18T09:31:19;13.50;;;8.68;;
67839;SDS011;54636;51.684;5.142;2022-12-18T09:33:46;17.35;;;10.60;;
67839;SDS011;54636;51.684;5.142;2022-12-18T09:36:13;16.38;;;10.50;;
67839;SDS011;54636;51.684;5.142;2022-12-18T09:38:40;17.40;;;9.15;;
67839;SDS011;54636;51.684;5.142;2022-12-18T09:41:13;10.20;;;7.90;;
67839;SDS011;54636;51.684;5.142;2022-12-18T09:43:48;19.55;;;13.77;;
67839;SDS011;54636;51.684;5.142;2022-12-18T09:46:19;19.02;;;12.02;;
67839;SDS011;54636;51.684;5.142;2022-12-18T09:48:56;19.15;;;9.60;;
67839;SDS011;54636;51.684;5.142;2022-12-18T09:51:27;25.63;;;9.43;;
67839;SDS011;54636;51.684;5.142;2022-12-18T09:53:59;21.15;;;13.55;;
67839;SDS011;54636;51.684;5.142;2022-12-18T09:56:37;10.18;;;8.65;;
67839;SDS011;54636;51.684;5.142;2022-12-18T09:59:08;16.27;;;10.18;;
67839;SDS011;54636;51.684;5.142;2022-12-18T10:01:43;20.33;;;14.05;;
67839;SDS011;54636;51.684;5.142;2022-12-18T10:04:08;19.88;;;11.68;;
67839;SDS011;54636;51.684;5.142;2022-12-18T10:06:39;15.57;;;11.65;;
67839;SDS011;54636;51.684;5.142;2022-12-18T10:09:20;15.98;;;10.65;;
67839;SDS011;54636;51.684;5.142;2022-12-18T10:14:50;17.87;;;12.27;;
67839;SDS011;54636;51.684;5.142;2022-12-18T10:19:56;19.83;;;9.82;;
67839;SDS011;54636;51.684;5.142;2022-12-18T10:22:29;15.00;;;11.18;;
67839;SDS011;54636;51.684;5.142;2022-12-18T10:25:04;11.10;;;8.10;;
67839;SDS011;54636;51.684;5.142;2022-12-18T10:27:40;13.43;;;8.02;;
67839;SDS011;54636;51.684;5.142;2022-12-18T10:30:12;18.17;;;13.07;;
67839;SDS011;54636;51.684;5.142;2022-12-18T10:32:42;18.00;;;12.75;;
67839;SDS011;54636;51.684;5.142;2022-12-18T10:35:12;16.25;;;10.35;;
67839;SDS011;54636;51.684;5.142;2022-12-18T10:40:53;20.17;;;11.60;;
67839;SDS011;54636;51.684;5.142;2022-12-18T10:48:54;18.98;;;10.50;;
67839;SDS011;54636;51.684;5.142;2022-12-18T10:51:24;22.10;;;10.27;;
67839;SDS011;54636;51.684;5.142;2022-12-18T10:53:53;15.02;;;11.05;;
67839;SDS011;54636;51.684;5.142;2022-12-18T10:56:26;12.90;;;9.40;;
67839;SDS011;54636;51.684;5.142;2022-12-18T10:58:57;16.60;;;10.57;;
67839;SDS011;54636;51.684;5.142;2022-12-18T11:01:25;16.63;;;10.93;;
67839;SDS011;54636;51.684;5.142;2022-12-18T11:06:20;10.80;;;5.38;;
67839;SDS011;54636;51.684;5.142;2022-12-18T11:08:59;19.40;;;10.70;;
67839;SDS011;54636;51.684;5.142;2022-12-18T11:11:26;10.55;;;6.82;;
67839;SDS011;54636;51.684;5.142;2022-12-18T11:14:03;13.13;;;10.18;;
67839;SDS011;54636;51.684;5.142;2022-12-18T11:16:47;18.42;;;12.15;;
67839;SDS011;54636;51.684;5.142;2022-12-18T11:22:00;14.70;;;8.13;;
67839;SDS011;54636;51.684;5.142;2022-12-18T11:24:33;17.48;;;12.23;;
67839;SDS011;54636;51.684;5.142;2022-12-18T11:27:03;13.10;;;9.85;;
67839;SDS011;54636;51.684;5.142;2022-12-18T11:29:37;17.65;;;11.25;;
67839;SDS011;54636;51.684;5.142;2022-12-18T11:37:59;20.98;;;11.50;;
67839;SDS011;54636;51.684;5.142;2022-12-18T11:40:34;15.57;;;10.27;;
67839;SDS011;54636;51.684;5.142;2022-12-18T11:43:21;20.27;;;11.50;;
67839;SDS011;54636;51.684;5.142;2022-12-18T11:45:55;11.23;;;7.47;;
67839;SDS011;54636;51.684;5.142;2022-12-18T11:48:27;14.63;;;10.57;;
67839;SDS011;54636;51.684;5.142;2022-12-18T11:50:58;10.77;;;7.30;;
67839;SDS011;54636;51.684;5.142;2022-12-18T11:53:27;19.45;;;12.50;;
67839;SDS011;54636;51.684;5.142;2022-12-18T12:01:15;12.52;;;10.15;;
67839;SDS011;54636;51.684;5.142;2022-12-18T12:16:47;15.95;;;10.38;;
67839;SDS011;54636;51.684;5.142;2022-12-18T12:22:36;15.13;;;9.70;;
67839;SDS011;54636;51.684;5.142;2022-12-18T12:36:13;20.10;;;14.13;;
67839;SDS011;54636;51.684;5.142;2022-12-18T12:38:59;13.88;;;9.85;;
67839;SDS011;54636;51.684;5.142;2022-12-18T12:41:31;13.70;;;10.48;;
67839;SDS011;54636;51.684;5.142;2022-12-18T12:44:22;12.73;;;10.15;;
67839;SDS011;54636;51.684;5.142;2022-12-18T12:46:52;14.73;;;9.95;;
67839;SDS011;54636;51.684;5.142;2022-12-18T12:49:26;17.92;;;12.35;;
67839;SDS011;54636;51.684;5.142;2022-12-18T12:51:58;14.00;;;8.70;;
67839;SDS011;54636;51.684;5.142;2022-12-18T12:54:29;17.52;;;11.23;;
67839;SDS011;54636;51.684;5.142;2022-12-18T12:57:00;21.80;;;13.05;;
67839;SDS011;54636;51.684;5.142;2022-12-18T12:59:40;15.55;;;7.95;;
67839;SDS011;54636;51.684;5.142;2022-12-18T13:07:45;12.90;;;8.77;;
67839;SDS011;54636;51.684;5.142;2022-12-18T13:20:34;15.70;;;9.68;;
67839;SDS011;54636;51.684;5.142;2022-12-18T13:23:00;21.73;;;12.15;;
67839;SDS011;54636;51.684;5.142;2022-12-18T13:25:35;17.58;;;10.93;;
67839;SDS011;54636;51.684;5.142;2022-12-18T13:28:04;21.10;;;9.00;;
67839;SDS011;54636;51.684;5.142;2022-12-18T13:35:53;13.27;;;9.07;;
67839;SDS011;54636;51.684;5.142;2022-12-18T13:38:37;20.35;;;12.75;;
67839;SDS011;54636;51.684;5.142;2022-12-18T13:51:34;17.85;;;12.18;;
67839;SDS011;54636;51.684;5.142;2022-12-18T13:54:01;19.75;;;12.40;;
67839;SDS011;54636;51.684;5.142;2022-12-18T13:56:31;9.82;;;7.30;;
67839;SDS011;54636;51.684;5.142;2022-12-18T14:01:51;16.20;;;10.10;;
67839;SDS011;54636;51.684;5.142;2022-12-18T14:09:23;16.92;;;11.05;;
67839;SDS011;54636;51.684;5.142;2022-12-18T14:11:50;11.25;;;9.18;;
67839;SDS011;54636;51.684;5.142;2022-12-18T14:14:17;20.23;;;12.15;;
67839;SDS011;54636;51.684;5.142;2022-12-18T14:16:45;14.25;;;10.20;;
67839;SDS011;54636;51.684;5.142;2022-12-18T14:19:15;16.85;;;11.80;;
67839;SDS011;54636;51.684;5.142;2022-12-18T14:21:46;9.85;;;7.30;;
67839;SDS011;54636;51.684;5.142;2022-12-18T14:24:14;14.95;;;11.57;;
67839;SDS011;54636;51.684;5.142;2022-12-18T14:26:42;17.40;;;11.32;;
67839;SDS011;54636;51.684;5.142;2022-12-18T14:29:19;14.65;;;11.27;;
67839;SDS011;54636;51.684;5.142;2022-12-18T14:32:03;11.20;;;8.23;;
67839;SDS011;54636;51.684;5.142;2022-12-18T14:34:42;17.77;;;9.57;;
67839;SDS011;54636;51.684;5.142;2022-12-18T14:37:12;15.70;;;10.40;;
67839;SDS011;54636;51.684;5.142;2022-12-18T14:39:39;12.27;;;9.82;;
67839;SDS011;54636;51.684;5.142;2022-12-18T14:42:05;20.60;;;13.63;;
67839;SDS011;54636;51.684;5.142;2022-12-18T14:44:30;17.27;;;11.30;;
67839;SDS011;54636;51.684;5.142;2022-12-18T14:46:56;25.15;;;14.45;;
67839;SDS011;54636;51.684;5.142;2022-12-18T14:49:26;19.08;;;8.15;;
67839;SDS011;54636;51.684;5.142;2022-12-18T14:51:56;14.95;;;9.77;;
67839;SDS011;54636;51.684;5.142;2022-12-18T14:54:23;18.73;;;10.05;;
67839;SDS011;54636;51.684;5.142;2022-12-18T14:59:27;15.30;;;9.63;;
67839;SDS011;54636;51.684;5.142;2022-12-18T15:04:39;19.42;;;12.82;;
67839;SDS011;54636;51.684;5.142;2022-12-18T15:10:00;15.60;;;11.77;;
67839;SDS011;54636;51.684;5.142;2022-12-18T15:12:42;13.13;;;9.43;;
67839;SDS011;54636;51.684;5.142;2022-12-18T15:20:33;21.05;;;10.88;;
67839;SDS011;54636;51.684;5.142;2022-12-18T15:23:14;18.90;;;12.38;;
67839;SDS011;54636;51.684;5.142;2022-12-18T15:25:42;14.48;;;10.00;;
67839;SDS011;54636;51.684;5.142;2022-12-18T15:33:38;15.65;;;9.73;;
67839;SDS011;54636;51.684;5.142;2022-12-18T15:36:08;17.33;;;12.13;;
67839;SDS011;54636;51.684;5.142;2022-12-18T15:38:36;22.00;;;12.48;;
67839;SDS011;54636;51.684;5.142;2022-12-18T15:41:01;8.93;;;6.82;;
67839;SDS011;54636;51.684;5.142;2022-12-18T15:43:27;19.98;;;12.35;;
67839;SDS011;54636;51.684;5.142;2022-12-18T15:46:15;13.18;;;9.68;;
67839;SDS011;54636;51.684;5.142;2022-12-18T15:48:45;19.80;;;12.98;;
67839;SDS011;54636;51.684;5.142;2022-12-18T15:51:19;18.38;;;10.95;;
67839;SDS011;54636;51.684;5.142;2022-12-18T15:53:53;19.48;;;13.18;;
67839;SDS011;54636;51.684;5.142;2022-12-18T15:56:20;27.67;;;18.13;;
67839;SDS011;54636;51.684;5.142;2022-12-18T15:59:09;25.65;;;16.50;;
67839;SDS011;54636;51.684;5.142;2022-12-18T16:01:37;26.58;;;17.15;;
67839;SDS011;54636;51.684;5.142;2022-12-18T16:04:02;18.17;;;9.82;;
67839;SDS011;54636;51.684;5.142;2022-12-18T16:06:28;25.77;;;17.25;;
67839;SDS011;54636;51.684;5.142;2022-12-18T16:08:53;33.25;;;23.38;;
67839;SDS011;54636;51.684;5.142;2022-12-18T16:11:26;24.10;;;15.27;;
67839;SDS011;54636;51.684;5.142;2022-12-18T16:14:18;30.38;;;18.80;;
67839;SDS011;54636;51.684;5.142;2022-12-18T16:16:46;17.95;;;10.45;;
67839;SDS011;54636;51.684;5.142;2022-12-18T16:19:17;28.75;;;20.35;;
67839;SDS011;54636;51.684;5.142;2022-12-18T16:21:43;32.08;;;21.08;;
67839;SDS011;54636;51.684;5.142;2022-12-18T16:24:19;21.20;;;16.02;;
67839;SDS011;54636;51.684;5.142;2022-12-18T16:26:49;43.72;;;25.13;;
67839;SDS011;54636;51.684;5.142;2022-12-18T16:29:16;24.30;;;14.85;;
67839;SDS011;54636;51.684;5.142;2022-12-18T16:31:42;24.25;;;14.43;;
67839;SDS011;54636;51.684;5.142;2022-12-18T16:34:21;23.35;;;16.13;;
67839;SDS011;54636;51.684;5.142;2022-12-18T16:36:54;22.25;;;13.73;;
67839;SDS011;54636;51.684;5.142;2022-12-18T16:39:20;17.70;;;10.82;;
67839;SDS011;54636;51.684;5.142;2022-12-18T16:41:45;20.83;;;13.93;;
67839;SDS011;54636;51.684;5.142;2022-12-18T16:44:12;19.85;;;13.65;;
67839;SDS011;54636;51.684;5.142;2022-12-18T16:46:39;21.58;;;14.10;;
67839;SDS011;54636;51.684;5.142;2022-12-18T16:49:04;18.67;;;9.93;;
67839;SDS011;54636;51.684;5.142;2022-12-18T16:51:30;22.08;;;13.60;;
67839;SDS011;54636;51.684;5.142;2022-12-18T16:53:56;11.45;;;8.68;;
67839;SDS011;54636;51.684;5.142;2022-12-18T16:56:21;17.55;;;12.00;;
67839;SDS011;54636;51.684;5.142;2022-12-18T16:58:50;11.85;;;9.73;;